Terminal Aerodrome Forecast
Issued by NWS Milwaukee/Sullivan, WI

Home | Current Version | Previous Version | Text Only | Print | Product List | Glossary On
Versions: 1 2 3 4 5 6 7 8 9 10 11 12 13 14 15 16 17 18 19 20 21 22 23 24 25 26
000
FTUS43 KMKX 292320
TAFMSN
TAF
KMSN 292320Z 3000/3024 06015G23KT 6SM -RA OVC060
     FM300500 06015G25KT 6SM -RA OVC015
     FM300700 06015G25KT P6SM OVC010
     FM300900 06016G24KT P6SM OVC008
     FM301300 06016G24KT 6SM -SHRA OVC008
     FM302200 06014G25KT 2SM -SHRA OVC008=

USA.gov is the U.S. government's official web portal to all federal, state and local government web resources and services.